sensor_id;sensor_type;location;lat;lon;timestamp;P1;durP1;ratioP1;P2;durP2;ratioP2
3779;SDS011;1905;52.482;9.802;2023-04-04T00:01:04;2.43;;;2.00;;
3779;SDS011;1905;52.482;9.802;2023-04-04T00:03:32;4.63;;;3.07;;
3779;SDS011;1905;52.482;9.802;2023-04-04T00:06:00;6.87;;;4.23;;
3779;SDS011;1905;52.482;9.802;2023-04-04T00:08:29;7.40;;;3.17;;
3779;SDS011;1905;52.482;9.802;2023-04-04T00:10:56;6.47;;;3.90;;
3779;SDS011;1905;52.482;9.802;2023-04-04T00:13:25;5.53;;;2.70;;
3779;SDS011;1905;52.482;9.802;2023-04-04T00:15:53;5.37;;;2.53;;
3779;SDS011;1905;52.482;9.802;2023-04-04T00:18:21;4.70;;;3.07;;
3779;SDS011;1905;52.482;9.802;2023-04-04T00:20:49;3.80;;;2.50;;
3779;SDS011;1905;52.482;9.802;2023-04-04T00:23:16;9.63;;;2.93;;
3779;SDS011;1905;52.482;9.802;2023-04-04T00:25:50;2.87;;;2.63;;
3779;SDS011;1905;52.482;9.802;2023-04-04T00:28:19;3.90;;;2.43;;
3779;SDS011;1905;52.482;9.802;2023-04-04T00:30:47;3.70;;;2.30;;
3779;SDS011;1905;52.482;9.802;2023-04-04T00:33:14;2.80;;;1.83;;
3779;SDS011;1905;52.482;9.802;2023-04-04T00:35:42;2.70;;;2.50;;
3779;SDS011;1905;52.482;9.802;2023-04-04T00:38:10;3.40;;;2.03;;
3779;SDS011;1905;52.482;9.802;2023-04-04T00:40:39;3.40;;;1.63;;
3779;SDS011;1905;52.482;9.802;2023-04-04T00:43:10;2.70;;;2.00;;
3779;SDS011;1905;52.482;9.802;2023-04-04T00:45:37;4.10;;;2.07;;
3779;SDS011;1905;52.482;9.802;2023-04-04T00:48:06;2.80;;;1.80;;
3779;SDS011;1905;52.482;9.802;2023-04-04T00:50:34;4.53;;;1.60;;
3779;SDS011;1905;52.482;9.802;2023-04-04T00:53:02;4.07;;;1.90;;
3779;SDS011;1905;52.482;9.802;2023-04-04T00:55:30;2.60;;;2.33;;
3779;SDS011;1905;52.482;9.802;2023-04-04T00:57:57;3.60;;;1.70;;
3779;SDS011;1905;52.482;9.802;2023-04-04T01:00:28;2.80;;;2.13;;
3779;SDS011;1905;52.482;9.802;2023-04-04T01:02:56;7.80;;;2.27;;
3779;SDS011;1905;52.482;9.802;2023-04-04T01:05:23;1.40;;;1.30;;
3779;SDS011;1905;52.482;9.802;2023-04-04T01:07:51;3.60;;;2.30;;
3779;SDS011;1905;52.482;9.802;2023-04-04T01:10:18;2.33;;;2.10;;
3779;SDS011;1905;52.482;9.802;2023-04-04T01:12:47;2.80;;;1.60;;
3779;SDS011;1905;52.482;9.802;2023-04-04T01:15:16;2.20;;;1.27;;
3779;SDS011;1905;52.482;9.802;2023-04-04T01:17:44;1.90;;;1.77;;
3779;SDS011;1905;52.482;9.802;2023-04-04T01:20:14;4.87;;;2.00;;
3779;SDS011;1905;52.482;9.802;2023-04-04T01:22:49;4.03;;;2.10;;
3779;SDS011;1905;52.482;9.802;2023-04-04T01:25:18;2.00;;;1.70;;
3779;SDS011;1905;52.482;9.802;2023-04-04T01:27:55;3.23;;;2.13;;
3779;SDS011;1905;52.482;9.802;2023-04-04T01:30:23;4.10;;;1.10;;
3779;SDS011;1905;52.482;9.802;2023-04-04T01:32:55;3.87;;;1.50;;
3779;SDS011;1905;52.482;9.802;2023-04-04T01:35:28;1.47;;;1.37;;
3779;SDS011;1905;52.482;9.802;2023-04-04T01:38:05;1.43;;;1.30;;
3779;SDS011;1905;52.482;9.802;2023-04-04T01:40:42;1.23;;;1.17;;
3779;SDS011;1905;52.482;9.802;2023-04-04T01:43:14;2.20;;;1.97;;
3779;SDS011;1905;52.482;9.802;2023-04-04T01:45:43;2.37;;;1.57;;
3779;SDS011;1905;52.482;9.802;2023-04-04T01:48:12;1.60;;;1.50;;
3779;SDS011;1905;52.482;9.802;2023-04-04T01:50:44;4.00;;;1.30;;
3779;SDS011;1905;52.482;9.802;2023-04-04T01:53:13;2.43;;;1.80;;
3779;SDS011;1905;52.482;9.802;2023-04-04T01:55:40;7.10;;;1.50;;
3779;SDS011;1905;52.482;9.802;2023-04-04T01:58:10;1.43;;;1.33;;
3779;SDS011;1905;52.482;9.802;2023-04-04T02:00:38;4.60;;;1.60;;
3779;SDS011;1905;52.482;9.802;2023-04-04T02:03:06;2.20;;;1.57;;
3779;SDS011;1905;52.482;9.802;2023-04-04T02:05:34;3.10;;;1.67;;
3779;SDS011;1905;52.482;9.802;2023-04-04T02:08:01;2.27;;;1.67;;
3779;SDS011;1905;52.482;9.802;2023-04-04T02:10:38;1.67;;;1.57;;
3779;SDS011;1905;52.482;9.802;2023-04-04T02:13:06;2.43;;;1.60;;
3779;SDS011;1905;52.482;9.802;2023-04-04T02:15:35;2.63;;;2.47;;
3779;SDS011;1905;52.482;9.802;2023-04-04T02:18:03;1.50;;;1.40;;
3779;SDS011;1905;52.482;9.802;2023-04-04T02:20:30;1.73;;;1.53;;
3779;SDS011;1905;52.482;9.802;2023-04-04T02:22:58;1.70;;;1.40;;
3779;SDS011;1905;52.482;9.802;2023-04-04T02:25:25;1.40;;;1.30;;
3779;SDS011;1905;52.482;9.802;2023-04-04T02:27:53;1.77;;;1.67;;
3779;SDS011;1905;52.482;9.802;2023-04-04T02:30:20;2.50;;;1.40;;
3779;SDS011;1905;52.482;9.802;2023-04-04T02:32:50;2.03;;;1.60;;
3779;SDS011;1905;52.482;9.802;2023-04-04T02:35:19;1.80;;;1.50;;
3779;SDS011;1905;52.482;9.802;2023-04-04T02:37:48;1.47;;;1.37;;
3779;SDS011;1905;52.482;9.802;2023-04-04T02:40:21;4.70;;;1.70;;
3779;SDS011;1905;52.482;9.802;2023-04-04T02:42:49;2.20;;;1.97;;
3779;SDS011;1905;52.482;9.802;2023-04-04T02:45:18;2.80;;;1.80;;
3779;SDS011;1905;52.482;9.802;2023-04-04T02:47:56;2.80;;;1.80;;
3779;SDS011;1905;52.482;9.802;2023-04-04T02:50:34;3.13;;;2.03;;
3779;SDS011;1905;52.482;9.802;2023-04-04T02:53:02;1.90;;;1.80;;
3779;SDS011;1905;52.482;9.802;2023-04-04T02:55:32;2.70;;;1.63;;
3779;SDS011;1905;52.482;9.802;2023-04-04T02:58:00;1.67;;;1.57;;
3779;SDS011;1905;52.482;9.802;2023-04-04T03:00:28;4.13;;;2.53;;
3779;SDS011;1905;52.482;9.802;2023-04-04T03:02:57;1.70;;;1.60;;
3779;SDS011;1905;52.482;9.802;2023-04-04T03:05:31;1.73;;;1.63;;
3779;SDS011;1905;52.482;9.802;2023-04-04T03:07:59;2.60;;;1.50;;
3779;SDS011;1905;52.482;9.802;2023-04-04T03:10:27;5.40;;;1.97;;
3779;SDS011;1905;52.482;9.802;2023-04-04T03:12:56;2.63;;;1.30;;
3779;SDS011;1905;52.482;9.802;2023-04-04T03:15:26;1.80;;;1.67;;
3779;SDS011;1905;52.482;9.802;2023-04-04T03:17:54;7.03;;;2.63;;
3779;SDS011;1905;52.482;9.802;2023-04-04T03:20:25;1.53;;;1.43;;
3779;SDS011;1905;52.482;9.802;2023-04-04T03:22:53;1.37;;;1.27;;
3779;SDS011;1905;52.482;9.802;2023-04-04T03:25:21;1.30;;;1.13;;
3779;SDS011;1905;52.482;9.802;2023-04-04T03:27:49;5.87;;;2.50;;
3779;SDS011;1905;52.482;9.802;2023-04-04T03:30:20;2.30;;;2.10;;
3779;SDS011;1905;52.482;9.802;2023-04-04T03:32:48;5.37;;;1.70;;
3779;SDS011;1905;52.482;9.802;2023-04-04T03:35:16;3.23;;;1.93;;
3779;SDS011;1905;52.482;9.802;2023-04-04T03:37:45;2.00;;;1.90;;
3779;SDS011;1905;52.482;9.802;2023-04-04T03:40:12;1.93;;;1.40;;
3779;SDS011;1905;52.482;9.802;2023-04-04T03:42:40;1.50;;;1.40;;
3779;SDS011;1905;52.482;9.802;2023-04-04T03:45:10;4.43;;;1.70;;
3779;SDS011;1905;52.482;9.802;2023-04-04T03:47:40;2.70;;;1.50;;
3779;SDS011;1905;52.482;9.802;2023-04-04T03:50:08;3.33;;;1.57;;
3779;SDS011;1905;52.482;9.802;2023-04-04T03:52:44;5.27;;;1.60;;
3779;SDS011;1905;52.482;9.802;2023-04-04T03:55:12;1.50;;;1.40;;
3779;SDS011;1905;52.482;9.802;2023-04-04T03:57:40;4.30;;;2.20;;
3779;SDS011;1905;52.482;9.802;2023-04-04T04:00:10;2.43;;;1.57;;
3779;SDS011;1905;52.482;9.802;2023-04-04T04:02:38;2.13;;;1.73;;
3779;SDS011;1905;52.482;9.802;2023-04-04T04:05:08;3.60;;;1.87;;
3779;SDS011;1905;52.482;9.802;2023-04-04T04:07:35;2.17;;;1.80;;
3779;SDS011;1905;52.482;9.802;2023-04-04T04:10:08;2.10;;;1.23;;
3779;SDS011;1905;52.482;9.802;2023-04-04T04:12:37;4.70;;;1.70;;
3779;SDS011;1905;52.482;9.802;2023-04-04T04:15:05;2.40;;;1.80;;
3779;SDS011;1905;52.482;9.802;2023-04-04T04:17:33;1.57;;;1.47;;
3779;SDS011;1905;52.482;9.802;2023-04-04T04:20:01;1.83;;;1.40;;
3779;SDS011;1905;52.482;9.802;2023-04-04T04:22:36;1.90;;;1.80;;
3779;SDS011;1905;52.482;9.802;2023-04-04T04:25:04;1.30;;;1.20;;
3779;SDS011;1905;52.482;9.802;2023-04-04T04:27:33;3.73;;;1.77;;
3779;SDS011;1905;52.482;9.802;2023-04-04T04:30:02;1.37;;;1.30;;
3779;SDS011;1905;52.482;9.802;2023-04-04T04:32:35;2.00;;;1.40;;
3779;SDS011;1905;52.482;9.802;2023-04-04T04:35:03;2.93;;;1.63;;
3779;SDS011;1905;52.482;9.802;2023-04-04T04:37:34;1.77;;;1.40;;
3779;SDS011;1905;52.482;9.802;2023-04-04T04:40:04;2.13;;;1.87;;
3779;SDS011;1905;52.482;9.802;2023-04-04T04:42:39;1.83;;;1.60;;
3779;SDS011;1905;52.482;9.802;2023-04-04T04:45:10;2.90;;;1.80;;
3779;SDS011;1905;52.482;9.802;2023-04-04T04:47:42;6.57;;;1.80;;
3779;SDS011;1905;52.482;9.802;2023-04-04T04:50:15;2.17;;;1.97;;
3779;SDS011;1905;52.482;9.802;2023-04-04T04:52:48;2.70;;;1.27;;
3779;SDS011;1905;52.482;9.802;2023-04-04T04:55:16;3.07;;;1.87;;
3779;SDS011;1905;52.482;9.802;2023-04-04T04:57:53;2.60;;;2.23;;
3779;SDS011;1905;52.482;9.802;2023-04-04T05:00:24;3.57;;;2.00;;
3779;SDS011;1905;52.482;9.802;2023-04-04T05:02:53;1.57;;;1.23;;
3779;SDS011;1905;52.482;9.802;2023-04-04T05:05:30;3.37;;;1.80;;
3779;SDS011;1905;52.482;9.802;2023-04-04T05:08:02;2.83;;;2.10;;
3779;SDS011;1905;52.482;9.802;2023-04-04T05:10:34;6.13;;;1.70;;
3779;SDS011;1905;52.482;9.802;2023-04-04T05:13:03;1.53;;;1.43;;
3779;SDS011;1905;52.482;9.802;2023-04-04T05:15:38;5.30;;;1.90;;
3779;SDS011;1905;52.482;9.802;2023-04-04T05:18:07;2.23;;;2.03;;
3779;SDS011;1905;52.482;9.802;2023-04-04T05:20:35;1.10;;;1.10;;
3779;SDS011;1905;52.482;9.802;2023-04-04T05:23:05;2.80;;;1.93;;
3779;SDS011;1905;52.482;9.802;2023-04-04T05:25:37;1.93;;;1.80;;
3779;SDS011;1905;52.482;9.802;2023-04-04T05:28:07;3.63;;;2.03;;
3779;SDS011;1905;52.482;9.802;2023-04-04T05:30:36;2.00;;;1.80;;
3779;SDS011;1905;52.482;9.802;2023-04-04T05:33:13;11.83;;;2.00;;
3779;SDS011;1905;52.482;9.802;2023-04-04T05:35:46;2.30;;;1.60;;
3779;SDS011;1905;52.482;9.802;2023-04-04T05:38:16;1.87;;;1.67;;
3779;SDS011;1905;52.482;9.802;2023-04-04T05:40:47;2.67;;;2.47;;
3779;SDS011;1905;52.482;9.802;2023-04-04T05:43:19;4.30;;;2.07;;
3779;SDS011;1905;52.482;9.802;2023-04-04T05:46:01;3.83;;;2.30;;
3779;SDS011;1905;52.482;9.802;2023-04-04T05:48:35;2.03;;;1.87;;
3779;SDS011;1905;52.482;9.802;2023-04-04T05:51:02;5.40;;;2.27;;
3779;SDS011;1905;52.482;9.802;2023-04-04T05:53:38;2.30;;;2.10;;
3779;SDS011;1905;52.482;9.802;2023-04-04T05:56:06;3.67;;;2.43;;
3779;SDS011;1905;52.482;9.802;2023-04-04T05:58:35;2.30;;;2.00;;
3779;SDS011;1905;52.482;9.802;2023-04-04T06:01:05;4.23;;;1.87;;
3779;SDS011;1905;52.482;9.802;2023-04-04T06:03:34;2.83;;;2.53;;
3779;SDS011;1905;52.482;9.802;2023-04-04T06:06:05;6.20;;;2.70;;
3779;SDS011;1905;52.482;9.802;2023-04-04T06:08:33;2.87;;;2.00;;
3779;SDS011;1905;52.482;9.802;2023-04-04T06:11:18;5.23;;;2.23;;
3779;SDS011;1905;52.482;9.802;2023-04-04T06:13:48;5.67;;;2.50;;
3779;SDS011;1905;52.482;9.802;2023-04-04T06:16:19;5.17;;;2.70;;
3779;SDS011;1905;52.482;9.802;2023-04-04T06:18:48;8.23;;;2.07;;
3779;SDS011;1905;52.482;9.802;2023-04-04T06:21:15;3.97;;;2.83;;
3779;SDS011;1905;52.482;9.802;2023-04-04T06:23:43;1.60;;;1.50;;
3779;SDS011;1905;52.482;9.802;2023-04-04T06:26:11;3.70;;;2.70;;
3779;SDS011;1905;52.482;9.802;2023-04-04T06:28:45;2.57;;;2.30;;
3779;SDS011;1905;52.482;9.802;2023-04-04T06:31:16;3.57;;;2.20;;
3779;SDS011;1905;52.482;9.802;2023-04-04T06:33:46;2.80;;;2.37;;
3779;SDS011;1905;52.482;9.802;2023-04-04T06:36:15;6.73;;;3.00;;
3779;SDS011;1905;52.482;9.802;2023-04-04T06:38:45;3.83;;;3.20;;
3779;SDS011;1905;52.482;9.802;2023-04-04T06:41:17;3.73;;;2.90;;
3779;SDS011;1905;52.482;9.802;2023-04-04T06:43:46;3.83;;;2.80;;
3779;SDS011;1905;52.482;9.802;2023-04-04T06:46:14;7.80;;;2.63;;
3779;SDS011;1905;52.482;9.802;2023-04-04T06:48:43;6.63;;;3.07;;
3779;SDS011;1905;52.482;9.802;2023-04-04T06:51:11;4.93;;;2.37;;
3779;SDS011;1905;52.482;9.802;2023-04-04T06:53:42;3.20;;;2.20;;
3779;SDS011;1905;52.482;9.802;2023-04-04T06:56:10;3.17;;;2.50;;
3779;SDS011;1905;52.482;9.802;2023-04-04T06:58:38;6.17;;;3.67;;
3779;SDS011;1905;52.482;9.802;2023-04-04T07:01:06;4.83;;;3.47;;
3779;SDS011;1905;52.482;9.802;2023-04-04T07:03:33;3.00;;;1.90;;
3779;SDS011;1905;52.482;9.802;2023-04-04T07:06:03;2.03;;;1.70;;
3779;SDS011;1905;52.482;9.802;2023-04-04T07:08:31;3.67;;;2.00;;
3779;SDS011;1905;52.482;9.802;2023-04-04T07:11:02;13.40;;;2.37;;
3779;SDS011;1905;52.482;9.802;2023-04-04T07:13:29;4.67;;;2.50;;
3779;SDS011;1905;52.482;9.802;2023-04-04T07:15:57;2.60;;;2.13;;
3779;SDS011;1905;52.482;9.802;2023-04-04T07:18:24;1.80;;;1.70;;
3779;SDS011;1905;52.482;9.802;2023-04-04T07:20:52;1.50;;;1.40;;
3779;SDS011;1905;52.482;9.802;2023-04-04T07:23:21;1.63;;;1.53;;
3779;SDS011;1905;52.482;9.802;2023-04-04T07:25:48;2.83;;;2.23;;
3779;SDS011;1905;52.482;9.802;2023-04-04T07:28:16;2.70;;;1.40;;
3779;SDS011;1905;52.482;9.802;2023-04-04T07:30:43;2.60;;;1.73;;
3779;SDS011;1905;52.482;9.802;2023-04-04T07:33:11;4.13;;;1.90;;
3779;SDS011;1905;52.482;9.802;2023-04-04T07:35:38;5.03;;;1.90;;
3779;SDS011;1905;52.482;9.802;2023-04-04T07:38:06;1.43;;;1.27;;
3779;SDS011;1905;52.482;9.802;2023-04-04T07:40:35;1.63;;;1.53;;
3779;SDS011;1905;52.482;9.802;2023-04-04T07:43:03;3.10;;;1.60;;
3779;SDS011;1905;52.482;9.802;2023-04-04T07:45:31;2.10;;;1.97;;
3779;SDS011;1905;52.482;9.802;2023-04-04T07:47:59;2.20;;;1.23;;
3779;SDS011;1905;52.482;9.802;2023-04-04T07:50:27;3.17;;;2.00;;
3779;SDS011;1905;52.482;9.802;2023-04-04T07:52:54;9.07;;;2.33;;
3779;SDS011;1905;52.482;9.802;2023-04-04T07:55:23;4.10;;;1.77;;
3779;SDS011;1905;52.482;9.802;2023-04-04T07:57:52;3.30;;;1.90;;
3779;SDS011;1905;52.482;9.802;2023-04-04T08:00:21;5.23;;;1.73;;
3779;SDS011;1905;52.482;9.802;2023-04-04T08:02:51;5.63;;;1.23;;
3779;SDS011;1905;52.482;9.802;2023-04-04T08:05:19;5.03;;;2.50;;
3779;SDS011;1905;52.482;9.802;2023-04-04T08:07:47;2.30;;;1.63;;
3779;SDS011;1905;52.482;9.802;2023-04-04T08:10:15;2.00;;;1.57;;
3779;SDS011;1905;52.482;9.802;2023-04-04T08:12:44;1.50;;;1.13;;
3779;SDS011;1905;52.482;9.802;2023-04-04T08:15:13;6.23;;;1.70;;
3779;SDS011;1905;52.482;9.802;2023-04-04T08:17:40;1.50;;;1.17;;
3779;SDS011;1905;52.482;9.802;2023-04-04T08:20:09;2.20;;;1.50;;
3779;SDS011;1905;52.482;9.802;2023-04-04T08:22:38;3.23;;;1.37;;
3779;SDS011;1905;52.482;9.802;2023-04-04T08:25:07;1.67;;;1.50;;
3779;SDS011;1905;52.482;9.802;2023-04-04T08:27:38;1.33;;;1.23;;
3779;SDS011;1905;52.482;9.802;2023-04-04T08:30:09;3.93;;;1.37;;
3779;SDS011;1905;52.482;9.802;2023-04-04T08:32:39;3.43;;;1.70;;
3779;SDS011;1905;52.482;9.802;2023-04-04T08:35:07;2.10;;;1.40;;
3779;SDS011;1905;52.482;9.802;2023-04-04T08:37:35;2.03;;;1.80;;
3779;SDS011;1905;52.482;9.802;2023-04-04T08:40:03;1.53;;;1.43;;
3779;SDS011;1905;52.482;9.802;2023-04-04T08:42:32;4.23;;;1.30;;
3779;SDS011;1905;52.482;9.802;2023-04-04T08:45:01;1.93;;;1.73;;
3779;SDS011;1905;52.482;9.802;2023-04-04T08:47:30;2.80;;;1.50;;
3779;SDS011;1905;52.482;9.802;2023-04-04T08:50:04;1.30;;;1.20;;
3779;SDS011;1905;52.482;9.802;2023-04-04T08:52:33;2.83;;;1.03;;
3779;SDS011;1905;52.482;9.802;2023-04-04T08:55:01;2.93;;;1.50;;
3779;SDS011;1905;52.482;9.802;2023-04-04T08:57:31;4.83;;;1.30;;
3779;SDS011;1905;52.482;9.802;2023-04-04T08:59:59;4.50;;;1.20;;
3779;SDS011;1905;52.482;9.802;2023-04-04T09:02:32;1.00;;;0.90;;
3779;SDS011;1905;52.482;9.802;2023-04-04T09:05:05;1.67;;;1.53;;
3779;SDS011;1905;52.482;9.802;2023-04-04T09:07:34;1.67;;;1.20;;
3779;SDS011;1905;52.482;9.802;2023-04-04T09:10:06;2.10;;;1.17;;
3779;SDS011;1905;52.482;9.802;2023-04-04T09:12:35;1.70;;;1.10;;
3779;SDS011;1905;52.482;9.802;2023-04-04T09:15:05;1.37;;;1.27;;
3779;SDS011;1905;52.482;9.802;2023-04-04T09:17:34;1.00;;;1.00;;
3779;SDS011;1905;52.482;9.802;2023-04-04T09:20:02;2.27;;;1.40;;
3779;SDS011;1905;52.482;9.802;2023-04-04T09:22:52;1.03;;;1.03;;
3779;SDS011;1905;52.482;9.802;2023-04-04T09:25:20;1.47;;;0.90;;
3779;SDS011;1905;52.482;9.802;2023-04-04T09:27:48;4.10;;;1.17;;
3779;SDS011;1905;52.482;9.802;2023-04-04T09:30:18;1.57;;;1.20;;
3779;SDS011;1905;52.482;9.802;2023-04-04T09:32:46;0.80;;;0.80;;
3779;SDS011;1905;52.482;9.802;2023-04-04T09:35:15;1.37;;;0.97;;
3779;SDS011;1905;52.482;9.802;2023-04-04T09:37:43;1.50;;;1.10;;
3779;SDS011;1905;52.482;9.802;2023-04-04T09:40:12;1.23;;;0.90;;
3779;SDS011;1905;52.482;9.802;2023-04-04T09:42:41;1.33;;;1.23;;
3779;SDS011;1905;52.482;9.802;2023-04-04T09:45:09;2.33;;;1.20;;
3779;SDS011;1905;52.482;9.802;2023-04-04T09:47:47;1.37;;;0.97;;
3779;SDS011;1905;52.482;9.802;2023-04-04T09:50:19;8.10;;;0.93;;
3779;SDS011;1905;52.482;9.802;2023-04-04T09:52:49;2.30;;;1.20;;
3779;SDS011;1905;52.482;9.802;2023-04-04T09:55:17;1.40;;;1.20;;
3779;SDS011;1905;52.482;9.802;2023-04-04T09:57:45;2.93;;;1.67;;
3779;SDS011;1905;52.482;9.802;2023-04-04T10:00:18;1.37;;;1.10;;
3779;SDS011;1905;52.482;9.802;2023-04-04T10:02:46;2.60;;;1.40;;
3779;SDS011;1905;52.482;9.802;2023-04-04T10:05:15;1.37;;;1.27;;
3779;SDS011;1905;52.482;9.802;2023-04-04T10:07:46;1.60;;;1.30;;
3779;SDS011;1905;52.482;9.802;2023-04-04T10:10:14;1.03;;;1.03;;
3779;SDS011;1905;52.482;9.802;2023-04-04T10:12:44;2.13;;;1.20;;
3779;SDS011;1905;52.482;9.802;2023-04-04T10:15:13;1.27;;;1.17;;
3779;SDS011;1905;52.482;9.802;2023-04-04T10:17:41;1.50;;;1.40;;
3779;SDS011;1905;52.482;9.802;2023-04-04T10:20:10;3.53;;;1.27;;
3779;SDS011;1905;52.482;9.802;2023-04-04T10:22:39;1.50;;;1.40;;
3779;SDS011;1905;52.482;9.802;2023-04-04T10:25:09;0.83;;;0.83;;
3779;SDS011;1905;52.482;9.802;2023-04-04T10:27:37;4.40;;;1.10;;
3779;SDS011;1905;52.482;9.802;2023-04-04T10:30:05;2.77;;;1.63;;
3779;SDS011;1905;52.482;9.802;2023-04-04T10:32:36;2.87;;;1.47;;
3779;SDS011;1905;52.482;9.802;2023-04-04T10:35:16;3.53;;;1.20;;
3779;SDS011;1905;52.482;9.802;2023-04-04T10:37:48;1.40;;;1.30;;
3779;SDS011;1905;52.482;9.802;2023-04-04T10:40:20;2.00;;;1.20;;
3779;SDS011;1905;52.482;9.802;2023-04-04T10:42:52;1.30;;;1.30;;
3779;SDS011;1905;52.482;9.802;2023-04-04T10:45:22;2.30;;;1.20;;
3779;SDS011;1905;52.482;9.802;2023-04-04T10:47:50;1.10;;;1.00;;
3779;SDS011;1905;52.482;9.802;2023-04-04T10:50:19;1.13;;;1.10;;
3779;SDS011;1905;52.482;9.802;2023-04-04T10:52:48;2.07;;;1.40;;
3779;SDS011;1905;52.482;9.802;2023-04-04T10:55:17;1.30;;;1.20;;
3779;SDS011;1905;52.482;9.802;2023-04-04T10:57:48;1.60;;;1.50;;
3779;SDS011;1905;52.482;9.802;2023-04-04T11:00:18;1.63;;;1.17;;
3779;SDS011;1905;52.482;9.802;2023-04-04T11:02:49;2.50;;;1.00;;
3779;SDS011;1905;52.482;9.802;2023-04-04T11:05:21;1.53;;;1.20;;
3779;SDS011;1905;52.482;9.802;2023-04-04T11:07:55;1.20;;;1.10;;
3779;SDS011;1905;52.482;9.802;2023-04-04T11:10:29;3.00;;;1.20;;
3779;SDS011;1905;52.482;9.802;2023-04-04T11:13:00;1.33;;;1.23;;
3779;SDS011;1905;52.482;9.802;2023-04-04T11:15:46;2.70;;;1.40;;
3779;SDS011;1905;52.482;9.802;2023-04-04T11:18:19;2.70;;;1.30;;
3779;SDS011;1905;52.482;9.802;2023-04-04T11:21:02;1.60;;;1.20;;
3779;SDS011;1905;52.482;9.802;2023-04-04T11:24:11;1.37;;;1.20;;
3779;SDS011;1905;52.482;9.802;2023-04-04T11:26:42;1.50;;;1.00;;
3779;SDS011;1905;52.482;9.802;2023-04-04T11:29:18;1.97;;;1.00;;
3779;SDS011;1905;52.482;9.802;2023-04-04T11:31:49;1.40;;;1.30;;
3779;SDS011;1905;52.482;9.802;2023-04-04T11:34:29;1.17;;;1.00;;
3779;SDS011;1905;52.482;9.802;2023-04-04T11:37:13;1.20;;;1.10;;
3779;SDS011;1905;52.482;9.802;2023-04-04T11:39:47;2.20;;;1.17;;
3779;SDS011;1905;52.482;9.802;2023-04-04T11:42:21;1.40;;;1.00;;
3779;SDS011;1905;52.482;9.802;2023-04-04T11:45:02;2.37;;;1.33;;
3779;SDS011;1905;52.482;9.802;2023-04-04T11:47:32;1.30;;;1.30;;
3779;SDS011;1905;52.482;9.802;2023-04-04T11:50:13;1.87;;;1.30;;
3779;SDS011;1905;52.482;9.802;2023-04-04T11:52:42;1.57;;;1.17;;
3779;SDS011;1905;52.482;9.802;2023-04-04T11:55:14;1.00;;;0.90;;
3779;SDS011;1905;52.482;9.802;2023-04-04T11:57:43;2.20;;;1.27;;
3779;SDS011;1905;52.482;9.802;2023-04-04T12:00:13;2.70;;;1.57;;
3779;SDS011;1905;52.482;9.802;2023-04-04T12:02:54;1.40;;;1.30;;
3779;SDS011;1905;52.482;9.802;2023-04-04T12:05:23;1.30;;;1.20;;
3779;SDS011;1905;52.482;9.802;2023-04-04T12:07:53;4.40;;;1.63;;
3779;SDS011;1905;52.482;9.802;2023-04-04T12:10:22;2.07;;;1.47;;
3779;SDS011;1905;52.482;9.802;2023-04-04T12:12:50;1.43;;;1.30;;
3779;SDS011;1905;52.482;9.802;2023-04-04T12:15:21;2.37;;;1.40;;
3779;SDS011;1905;52.482;9.802;2023-04-04T12:17:49;1.73;;;1.50;;
3779;SDS011;1905;52.482;9.802;2023-04-04T12:20:18;1.30;;;1.20;;
3779;SDS011;1905;52.482;9.802;2023-04-04T12:22:48;3.40;;;1.60;;
3779;SDS011;1905;52.482;9.802;2023-04-04T12:25:17;1.80;;;1.70;;
3779;SDS011;1905;52.482;9.802;2023-04-04T12:27:47;2.03;;;1.50;;
3779;SDS011;1905;52.482;9.802;2023-04-04T12:30:17;0.90;;;0.90;;
3779;SDS011;1905;52.482;9.802;2023-04-04T12:32:45;3.20;;;1.27;;
3779;SDS011;1905;52.482;9.802;2023-04-04T12:35:14;1.50;;;1.40;;
3779;SDS011;1905;52.482;9.802;2023-04-04T12:37:55;2.03;;;1.60;;
3779;SDS011;1905;52.482;9.802;2023-04-04T12:40:27;2.50;;;1.70;;
3779;SDS011;1905;52.482;9.802;2023-04-04T12:42:58;1.83;;;1.50;;
3779;SDS011;1905;52.482;9.802;2023-04-04T12:45:25;3.00;;;1.50;;
3779;SDS011;1905;52.482;9.802;2023-04-04T12:47:55;1.17;;;1.17;;
3779;SDS011;1905;52.482;9.802;2023-04-04T12:50:24;4.67;;;1.60;;
3779;SDS011;1905;52.482;9.802;2023-04-04T12:52:53;1.30;;;1.10;;
3779;SDS011;1905;52.482;9.802;2023-04-04T12:55:44;4.47;;;1.77;;
3779;SDS011;1905;52.482;9.802;2023-04-04T12:58:15;7.23;;;1.47;;
3779;SDS011;1905;52.482;9.802;2023-04-04T13:00:43;2.10;;;1.13;;
3779;SDS011;1905;52.482;9.802;2023-04-04T13:03:12;2.93;;;1.70;;
3779;SDS011;1905;52.482;9.802;2023-04-04T13:05:41;2.20;;;1.30;;
3779;SDS011;1905;52.482;9.802;2023-04-04T13:08:09;3.50;;;1.43;;
3779;SDS011;1905;52.482;9.802;2023-04-04T13:10:57;2.70;;;1.40;;
3779;SDS011;1905;52.482;9.802;2023-04-04T13:13:32;1.20;;;0.97;;
3779;SDS011;1905;52.482;9.802;2023-04-04T13:16:02;1.60;;;1.33;;
3779;SDS011;1905;52.482;9.802;2023-04-04T13:18:32;1.33;;;1.20;;
3779;SDS011;1905;52.482;9.802;2023-04-04T13:21:05;2.20;;;1.87;;
3779;SDS011;1905;52.482;9.802;2023-04-04T13:23:36;1.33;;;1.23;;
3779;SDS011;1905;52.482;9.802;2023-04-04T13:26:06;2.03;;;1.80;;
3779;SDS011;1905;52.482;9.802;2023-04-04T13:28:36;1.70;;;1.50;;
3779;SDS011;1905;52.482;9.802;2023-04-04T13:31:04;1.43;;;1.33;;
3779;SDS011;1905;52.482;9.802;2023-04-04T13:33:33;2.60;;;1.40;;
3779;SDS011;1905;52.482;9.802;2023-04-04T13:36:01;1.40;;;1.30;;
3779;SDS011;1905;52.482;9.802;2023-04-04T13:38:29;2.70;;;1.63;;
3779;SDS011;1905;52.482;9.802;2023-04-04T13:40:57;2.73;;;1.50;;
3779;SDS011;1905;52.482;9.802;2023-04-04T13:43:25;1.27;;;1.17;;
3779;SDS011;1905;52.482;9.802;2023-04-04T13:45:55;1.53;;;1.43;;
3779;SDS011;1905;52.482;9.802;2023-04-04T13:48:22;1.47;;;1.37;;
3779;SDS011;1905;52.482;9.802;2023-04-04T13:50:50;2.43;;;1.43;;
3779;SDS011;1905;52.482;9.802;2023-04-04T13:53:20;1.40;;;1.30;;
3779;SDS011;1905;52.482;9.802;2023-04-04T13:55:48;1.47;;;1.07;;
3779;SDS011;1905;52.482;9.802;2023-04-04T13:58:36;1.40;;;1.30;;
3779;SDS011;1905;52.482;9.802;2023-04-04T14:01:05;1.00;;;1.00;;
3779;SDS011;1905;52.482;9.802;2023-04-04T14:03:34;1.77;;;1.20;;
3779;SDS011;1905;52.482;9.802;2023-04-04T14:06:02;1.47;;;1.37;;
3779;SDS011;1905;52.482;9.802;2023-04-04T14:08:36;1.20;;;1.10;;
3779;SDS011;1905;52.482;9.802;2023-04-04T14:11:04;1.70;;;1.20;;
3779;SDS011;1905;52.482;9.802;2023-04-04T14:13:31;1.60;;;1.10;;
3779;SDS011;1905;52.482;9.802;2023-04-04T14:15:59;1.63;;;1.30;;
3779;SDS011;1905;52.482;9.802;2023-04-04T14:18:28;2.00;;;1.40;;
3779;SDS011;1905;52.482;9.802;2023-04-04T14:20:56;2.73;;;1.30;;
3779;SDS011;1905;52.482;9.802;2023-04-04T14:23:23;4.60;;;1.13;;
3779;SDS011;1905;52.482;9.802;2023-04-04T14:25:51;3.57;;;1.50;;
3779;SDS011;1905;52.482;9.802;2023-04-04T14:28:19;4.97;;;2.03;;
3779;SDS011;1905;52.482;9.802;2023-04-04T14:30:48;1.73;;;1.63;;
3779;SDS011;1905;52.482;9.802;2023-04-04T14:33:16;2.93;;;1.20;;
3779;SDS011;1905;52.482;9.802;2023-04-04T14:35:45;1.73;;;1.40;;
3779;SDS011;1905;52.482;9.802;2023-04-04T14:38:12;2.30;;;1.50;;
3779;SDS011;1905;52.482;9.802;2023-04-04T14:40:40;1.30;;;1.10;;
3779;SDS011;1905;52.482;9.802;2023-04-04T14:43:08;1.07;;;1.07;;
3779;SDS011;1905;52.482;9.802;2023-04-04T14:45:35;4.00;;;1.30;;
3779;SDS011;1905;52.482;9.802;2023-04-04T14:48:03;1.43;;;1.33;;
3779;SDS011;1905;52.482;9.802;2023-04-04T14:50:30;1.10;;;1.00;;
3779;SDS011;1905;52.482;9.802;2023-04-04T14:52:59;2.70;;;1.77;;
3779;SDS011;1905;52.482;9.802;2023-04-04T14:55:27;1.33;;;1.23;;
3779;SDS011;1905;52.482;9.802;2023-04-04T14:57:54;3.67;;;1.50;;
3779;SDS011;1905;52.482;9.802;2023-04-04T15:00:28;1.80;;;1.40;;
3779;SDS011;1905;52.482;9.802;2023-04-04T15:02:55;3.07;;;1.60;;
3779;SDS011;1905;52.482;9.802;2023-04-04T15:05:23;2.03;;;1.50;;
3779;SDS011;1905;52.482;9.802;2023-04-04T15:07:51;4.30;;;2.13;;
3779;SDS011;1905;52.482;9.802;2023-04-04T15:10:20;1.77;;;1.27;;
3779;SDS011;1905;52.482;9.802;2023-04-04T15:12:47;1.13;;;0.93;;
3779;SDS011;1905;52.482;9.802;2023-04-04T15:15:15;1.30;;;1.20;;
3779;SDS011;1905;52.482;9.802;2023-04-04T15:17:43;1.10;;;1.00;;
3779;SDS011;1905;52.482;9.802;2023-04-04T15:20:10;1.90;;;1.27;;
3779;SDS011;1905;52.482;9.802;2023-04-04T15:22:38;1.20;;;1.10;;
3779;SDS011;1905;52.482;9.802;2023-04-04T15:25:07;1.73;;;1.27;;
3779;SDS011;1905;52.482;9.802;2023-04-04T15:27:36;1.60;;;1.10;;
3779;SDS011;1905;52.482;9.802;2023-04-04T15:30:04;2.13;;;1.47;;
3779;SDS011;1905;52.482;9.802;2023-04-04T15:32:33;3.33;;;1.17;;